createdAt,value
2019-02-28T00:01:11.863Z,243.13
2019-02-28T00:03:46.614Z,240.10
2019-02-28T00:06:22.364Z,241.80
2019-02-28T00:08:56.487Z,242.43
2019-02-28T00:11:30.675Z,247.37
2019-02-28T00:14:04.859Z,245.23
2019-02-28T00:16:39.154Z,249.70
2019-02-28T00:19:13.366Z,260.33
2019-02-28T00:21:50.597Z,242.63
2019-02-28T00:24:27.162Z,253.55
2019-02-28T00:26:59.875Z,250.43
2019-02-28T00:29:34.458Z,279.80
2019-02-28T00:32:10.525Z,263.33
2019-02-28T00:35:05.332Z,259.30
2019-02-28T00:37:39.707Z,270.17
2019-02-28T00:40:14.334Z,248.63
2019-02-28T00:42:50.885Z,253.95
2019-02-28T00:45:26.484Z,253.47
2019-02-28T00:48:03.150Z,258.43
2019-02-28T00:50:37.252Z,255.43
2019-02-28T00:53:11.291Z,261.20
2019-02-28T00:55:46.210Z,248.82
2019-02-28T00:58:22.481Z,245.03
2019-02-28T01:00:56.940Z,250.00
2019-02-28T01:03:31.199Z,233.30
2019-02-28T01:06:09.755Z,246.33
2019-02-28T01:08:42.144Z,239.00
2019-02-28T01:11:18.345Z,220.43
2019-02-28T01:13:52.224Z,211.87
2019-02-28T01:16:27.922Z,229.03
2019-02-28T01:19:08.595Z,230.40
2019-02-28T01:21:39.098Z,207.37
2019-02-28T01:24:14.671Z,214.72
2019-02-28T01:26:48.773Z,213.80
2019-02-28T01:29:33.010Z,204.93
2019-02-28T01:32:07.786Z,216.60
2019-02-28T01:34:42.010Z,198.77
2019-02-28T01:37:16.238Z,206.40
2019-02-28T01:39:50.555Z,194.80
2019-02-28T01:42:24.644Z,208.43
2019-02-28T01:45:00.773Z,197.73
2019-02-28T01:47:35.049Z,219.00
2019-02-28T01:50:11.551Z,214.33
2019-02-28T01:52:48.906Z,208.95
2019-02-28T01:55:23.097Z,194.80
2019-02-28T01:57:57.207Z,191.00
2019-02-28T02:00:31.422Z,208.13
2019-02-28T02:03:05.704Z,203.63
2019-02-28T02:05:41.506Z,207.43
2019-02-28T02:08:16.348Z,186.07
2019-02-28T02:10:54.933Z,192.95
2019-02-28T02:13:25.947Z,194.00
2019-02-28T02:16:01.501Z,196.87
2019-02-28T02:18:35.498Z,192.20
2019-02-28T02:21:11.270Z,185.77
2019-02-28T02:23:49.641Z,176.83
2019-02-28T02:26:24.065Z,180.37
2019-02-28T02:29:03.188Z,189.77
2019-02-28T02:31:37.392Z,182.90
2019-02-28T02:34:11.536Z,182.73
2019-02-28T02:36:53.046Z,198.50
2019-02-28T02:39:21.976Z,184.53
2019-02-28T02:41:55.967Z,177.37
2019-02-28T02:44:31.749Z,186.93
2019-02-28T02:47:05.253Z,175.27
2019-02-28T02:49:39.550Z,166.53
2019-02-28T02:52:18.203Z,178.23
2019-02-28T02:54:53.665Z,162.22
2019-02-28T02:57:27.880Z,179.10
2019-02-28T03:00:03.323Z,199.27
2019-02-28T03:02:37.508Z,186.47
2019-02-28T03:05:13.451Z,198.00
2019-02-28T03:07:47.655Z,209.97
2019-02-28T03:10:21.895Z,183.30
2019-02-28T03:12:56.136Z,188.03
2019-02-28T03:15:31.687Z,184.83
2019-02-28T03:18:26.816Z,195.80
2019-02-28T03:21:01.179Z,179.27
2019-02-28T03:23:40.178Z,200.23
2019-02-28T03:26:12.629Z,198.43
2019-02-28T03:28:46.906Z,181.87
2019-02-28T03:31:21.113Z,182.53
2019-02-28T03:33:55.227Z,188.10
2019-02-28T03:36:29.668Z,182.40
2019-02-28T03:39:03.847Z,183.63
2019-02-28T03:41:38.177Z,184.73
2019-02-28T03:44:19.862Z,190.13
2019-02-28T03:46:48.932Z,218.05
2019-02-28T03:49:23.757Z,180.57
2019-02-28T03:52:04.999Z,178.20
2019-02-28T03:54:37.423Z,191.10
2019-02-28T03:57:12.333Z,166.80
2019-02-28T03:59:55.449Z,177.90
2019-02-28T04:02:24.532Z,165.77
2019-02-28T04:04:58.584Z,149.93
2019-02-28T04:07:34.591Z,162.63
2019-02-28T04:10:10.995Z,159.03
2019-02-28T04:12:46.781Z,166.93
2019-02-28T04:15:21.079Z,147.13
2019-02-28T04:23:48.059Z,132.20
2019-02-28T04:26:23.656Z,130.17
2019-02-28T04:28:57.637Z,138.00
2019-02-28T04:31:31.638Z,127.80
2019-02-28T04:34:12.929Z,134.20
2019-02-28T04:36:43.445Z,155.32
2019-02-28T04:39:18.804Z,129.97
2019-02-28T04:41:54.599Z,122.10
2019-02-28T04:44:28.636Z,105.77
2019-02-28T04:47:03.449Z,101.33
2019-02-28T04:49:37.750Z,100.77
2019-02-28T04:52:18.898Z,106.67
2019-02-28T04:54:54.739Z,98.40
2019-02-28T04:57:29.097Z,109.97
2019-02-28T05:00:05.900Z,123.53
2019-02-28T05:02:39.774Z,107.67
2019-02-28T05:05:13.968Z,83.77
2019-02-28T05:07:50.017Z,103.63
2019-02-28T05:10:25.160Z,101.93
2019-02-28T05:12:59.065Z,104.27
2019-02-28T05:15:37.518Z,96.00
2019-02-28T05:18:08.595Z,96.87
2019-02-28T05:20:45.970Z,89.70
2019-02-28T05:23:20.990Z,93.57
2019-02-28T05:25:54.983Z,89.13
2019-02-28T05:28:28.766Z,95.60
2019-02-28T05:31:04.177Z,86.47
2019-02-28T05:33:38.382Z,81.30
2019-02-28T05:36:15.082Z,83.67
2019-02-28T05:38:53.587Z,75.90
2019-02-28T05:41:25.840Z,69.97
2019-02-28T05:44:03.290Z,71.07
2019-02-28T05:46:36.662Z,71.90
2019-02-28T05:49:10.512Z,68.20
2019-02-28T05:51:45.851Z,64.03
2019-02-28T05:54:21.217Z,52.63
2019-02-28T05:56:55.272Z,59.37
2019-02-28T05:59:30.560Z,62.27
2019-02-28T06:02:04.541Z,56.50
2019-02-28T06:04:38.538Z,87.07
2019-02-28T06:07:12.516Z,58.67
2019-02-28T06:09:48.799Z,62.63
2019-02-28T06:12:21.469Z,61.27
2019-02-28T06:15:01.944Z,67.97
2019-02-28T06:17:32.172Z,64.47
2019-02-28T06:20:08.348Z,74.73
2019-02-28T06:22:42.225Z,65.73
2019-02-28T06:25:24.060Z,57.90
2019-02-28T06:27:51.831Z,64.00
2019-02-28T06:30:27.619Z,67.03
2019-02-28T06:33:00.640Z,68.93
2019-02-28T06:35:34.532Z,68.23
2019-02-28T06:38:08.353Z,69.63
2019-02-28T06:40:42.627Z,78.10
2019-02-28T06:43:18.808Z,81.07
2019-02-28T06:45:51.639Z,78.30
2019-02-28T06:48:26.628Z,83.37
2019-02-28T06:51:00.729Z,84.23
2019-02-28T06:53:36.376Z,72.20
2019-02-28T06:56:10.237Z,89.97
2019-02-28T06:58:51.258Z,91.93
2019-02-28T07:01:25.779Z,79.43
2019-02-28T07:04:01.145Z,76.53
2019-02-28T07:06:35.935Z,83.52
2019-02-28T07:09:11.001Z,71.60
2019-02-28T07:11:46.815Z,77.33
2019-02-28T07:14:20.868Z,73.50
2019-02-28T07:16:54.787Z,75.77
2019-02-28T07:19:31.027Z,75.97
2019-02-28T07:22:04.943Z,70.40
2019-02-28T07:24:40.545Z,83.83
2019-02-28T07:27:15.913Z,86.03
2019-02-28T07:29:49.942Z,87.03
2019-02-28T07:32:26.202Z,95.30
2019-02-28T07:35:00.796Z,94.25
2019-02-28T07:37:34.619Z,93.93
2019-02-28T07:40:15.753Z,106.60
2019-02-28T07:42:50.501Z,83.33
2019-02-28T07:45:24.566Z,91.03
2019-02-28T07:48:00.734Z,98.07
2019-02-28T07:50:34.625Z,85.80
2019-02-28T07:53:11.801Z,92.97
2019-02-28T07:55:46.035Z,94.50
2019-02-28T07:58:20.012Z,98.40
2019-02-28T08:00:54.401Z,89.28
2019-02-28T08:03:30.080Z,96.83
2019-02-28T08:06:04.917Z,85.70
2019-02-28T08:08:40.734Z,90.83
2019-02-28T08:11:16.437Z,91.20
2019-02-28T08:13:55.553Z,93.83
2019-02-28T08:16:34.023Z,88.85
2019-02-28T08:19:06.463Z,89.10
2019-02-28T08:21:47.570Z,83.20
2019-02-28T08:24:18.618Z,85.27
2019-02-28T08:26:53.645Z,81.47
2019-02-28T08:29:27.581Z,81.53
2019-02-28T08:32:06.995Z,78.57
2019-02-28T08:34:38.796Z,85.43
2019-02-28T08:37:12.666Z,91.50
2019-02-28T08:39:46.581Z,87.23
2019-02-28T08:42:20.601Z,77.80
2019-02-28T08:44:58.081Z,82.42
2019-02-28T08:47:29.868Z,75.87
2019-02-28T08:50:05.340Z,80.43
2019-02-28T08:52:41.017Z,82.87
2019-02-28T08:55:27.897Z,79.50
2019-02-28T08:58:04.421Z,77.27
2019-02-28T09:00:33.384Z,80.43
2019-02-28T09:03:08.253Z,89.45
2019-02-28T09:05:43.155Z,75.80
2019-02-28T09:08:17.299Z,87.47
2019-02-28T09:10:56.390Z,82.53
2019-02-28T09:13:32.451Z,68.57
2019-02-28T09:16:09.106Z,69.33
2019-02-28T09:18:44.855Z,69.60
2019-02-28T09:21:21.667Z,72.47
2019-02-28T09:23:59.401Z,73.65
2019-02-28T09:26:36.747Z,70.97
2019-02-28T09:29:14.350Z,70.03
2019-02-28T09:31:48.948Z,72.07
2019-02-28T09:34:24.853Z,84.20
2019-02-28T09:37:00.156Z,64.00
2019-02-28T09:39:35.630Z,76.95
2019-02-28T09:42:14.815Z,73.00
2019-02-28T09:44:52.938Z,77.80
2019-02-28T09:47:27.571Z,69.13
2019-02-28T09:50:08.715Z,74.33
2019-02-28T09:52:44.569Z,75.57
2019-02-28T09:55:25.493Z,84.23
2019-02-28T09:58:07.464Z,83.07
2019-02-28T10:00:39.969Z,67.12
2019-02-28T10:03:15.418Z,77.43
2019-02-28T10:05:51.562Z,76.30
2019-02-28T10:08:27.416Z,74.05
2019-02-28T10:11:03.065Z,77.17
2019-02-28T10:13:38.929Z,79.37
2019-02-28T10:16:13.613Z,68.33
2019-02-28T10:18:48.352Z,79.90
2019-02-28T10:21:25.350Z,80.20
2019-02-28T10:24:01.968Z,79.07
2019-02-28T10:26:38.942Z,88.93
2019-02-28T10:29:15.676Z,79.33
2019-02-28T10:31:54.153Z,86.30
2019-02-28T10:34:35.366Z,95.57
2019-02-28T10:37:11.234Z,89.40
2019-02-28T10:39:46.085Z,81.83
2019-02-28T10:42:24.595Z,82.77
2019-02-28T10:45:06.528Z,85.30
2019-02-28T10:47:40.801Z,90.93
2019-02-28T10:50:32.170Z,89.42
2019-02-28T10:53:06.085Z,84.77
2019-02-28T10:55:41.288Z,89.70
2019-02-28T10:58:27.352Z,94.23
2019-02-28T11:01:08.659Z,100.53
2019-02-28T11:03:42.686Z,95.97
2019-02-28T11:06:18.751Z,95.37
2019-02-28T11:08:57.254Z,92.80
2019-02-28T11:11:32.254Z,96.67
2019-02-28T11:14:08.844Z,101.80
2019-02-28T11:16:46.526Z,101.03
2019-02-28T11:19:27.527Z,109.17
2019-02-28T11:22:05.955Z,103.43
2019-02-28T11:24:41.747Z,106.70
2019-02-28T11:27:20.903Z,101.73
2019-02-28T11:30:00.170Z,102.97
2019-02-28T11:32:36.412Z,102.50
2019-02-28T11:35:13.718Z,104.40
2019-02-28T11:37:48.809Z,105.03
2019-02-28T11:40:26.412Z,106.87
2019-02-28T11:43:02.870Z,111.13
2019-02-28T11:45:39.860Z,109.30
2019-02-28T11:48:23.409Z,109.93
2019-02-28T11:50:58.761Z,117.57
2019-02-28T11:53:39.380Z,118.20
2019-02-28T11:56:11.052Z,109.83
2019-02-28T11:58:51.481Z,129.53
2019-02-28T12:01:25.858Z,114.07
2019-02-28T12:04:03.825Z,109.23
2019-02-28T12:06:44.274Z,106.90
2019-02-28T12:09:21.025Z,109.73
2019-02-28T12:12:01.959Z,103.93
2019-02-28T12:14:39.976Z,103.60
2019-02-28T12:17:18.548Z,117.37
2019-02-28T12:19:53.873Z,117.70
2019-02-28T12:22:35.450Z,113.27
2019-02-28T12:25:17.652Z,111.20
2019-02-28T12:27:59.400Z,120.87
2019-02-28T12:30:40.165Z,122.57
2019-02-28T12:33:15.476Z,110.73
2019-02-28T12:36:17.744Z,108.40
2019-02-28T12:38:44.567Z,120.37
2019-02-28T12:41:21.700Z,122.50
2019-02-28T12:43:59.735Z,123.63
2019-02-28T12:46:35.832Z,122.27
2019-02-28T12:49:13.346Z,113.03
2019-02-28T12:51:50.533Z,123.50
2019-02-28T12:54:25.996Z,112.53
2019-02-28T12:57:02.470Z,125.87
2019-02-28T12:59:46.097Z,129.73
2019-02-28T13:02:19.821Z,126.97
2019-02-28T13:04:59.689Z,123.60
2019-02-28T13:07:37.037Z,141.00
2019-02-28T13:10:15.033Z,128.70
2019-02-28T13:13:05.612Z,118.40
2019-02-28T13:15:35.108Z,135.10
2019-02-28T13:18:10.489Z,116.67
2019-02-28T13:20:45.970Z,134.90
2019-02-28T13:23:21.910Z,138.90
2019-02-28T13:25:59.960Z,133.17
2019-02-28T13:28:35.082Z,139.00
2019-02-28T13:31:09.993Z,137.13
2019-02-28T13:33:52.773Z,138.43
2019-02-28T13:36:28.058Z,153.17
2019-02-28T13:39:02.397Z,154.57
2019-02-28T13:41:36.942Z,160.00
2019-02-28T13:44:11.838Z,173.02
2019-02-28T13:46:46.963Z,175.20
2019-02-28T13:49:22.112Z,170.40
2019-02-28T13:51:56.951Z,169.23
2019-02-28T13:54:33.471Z,191.13
2019-02-28T13:57:10.417Z,176.70
2019-02-28T13:59:48.349Z,184.97
2019-02-28T14:02:22.908Z,186.87
2019-02-28T14:04:58.679Z,183.37
2019-02-28T14:07:35.185Z,188.30
2019-02-28T14:10:14.581Z,205.47
2019-02-28T14:12:52.979Z,185.48
2019-02-28T14:15:27.890Z,187.23
2019-02-28T14:18:04.164Z,203.57
2019-02-28T14:20:40.357Z,197.17
2019-02-28T14:23:21.681Z,207.00
2019-02-28T14:29:14.907Z,202.37
2019-02-28T14:35:09.895Z,195.40
2019-02-28T14:37:46.708Z,204.50
2019-02-28T14:40:21.644Z,196.77
2019-02-28T14:42:56.176Z,217.20
2019-02-28T14:45:39.022Z,189.95
2019-02-28T14:48:13.559Z,207.57
2019-02-28T14:50:50.707Z,203.80
2019-02-28T14:53:26.194Z,192.80
2019-02-28T14:56:00.862Z,176.40
2019-02-28T14:58:37.110Z,174.67
2019-02-28T15:01:16.824Z,167.53
2019-02-28T15:03:48.617Z,175.57
2019-02-28T15:06:26.308Z,175.10
2019-02-28T15:09:00.371Z,184.20
2019-02-28T15:11:34.649Z,180.00
2019-02-28T15:14:10.520Z,165.20
2019-02-28T15:16:46.143Z,159.63
2019-02-28T15:19:21.359Z,163.17
2019-02-28T15:21:55.823Z,157.55
2019-02-28T15:24:36.065Z,162.30
2019-02-28T15:27:10.430Z,170.23
2019-02-28T15:29:45.477Z,169.93
2019-02-28T15:32:23.496Z,160.73
2019-02-28T15:35:03.865Z,161.70
2019-02-28T15:37:36.784Z,155.25
2019-02-28T15:40:16.311Z,152.95
2019-02-28T15:42:52.115Z,160.30
2019-02-28T15:45:27.893Z,147.63
2019-02-28T15:48:03.518Z,153.57
2019-02-28T15:50:37.590Z,155.97
2019-02-28T15:53:14.339Z,152.80
2019-02-28T15:55:47.435Z,145.23
2019-02-28T15:58:22.250Z,144.97
2019-02-28T16:00:56.631Z,147.63
2019-02-28T16:03:35.510Z,145.17
2019-02-28T16:06:09.520Z,145.67
2019-02-28T16:08:46.787Z,148.73
2019-02-28T16:11:18.654Z,147.83
2019-02-28T16:13:52.512Z,148.57
2019-02-28T16:16:27.549Z,147.53
2019-02-28T16:19:01.588Z,156.40
2019-02-28T16:21:38.133Z,130.83
2019-02-28T16:24:10.556Z,152.80
2019-02-28T16:26:44.693Z,158.10
2019-02-28T16:29:20.714Z,164.97
2019-02-28T16:31:53.643Z,158.63
2019-02-28T16:34:27.586Z,160.73
2019-02-28T16:37:01.947Z,177.10
2019-02-28T16:39:35.943Z,171.47
2019-02-28T16:42:11.406Z,164.70
2019-02-28T16:44:46.405Z,177.40
2019-02-28T16:47:21.455Z,180.80
2019-02-28T16:49:55.512Z,189.10
2019-02-28T16:52:29.469Z,178.62
2019-02-28T16:55:03.518Z,189.50
2019-02-28T16:57:37.459Z,182.57
2019-02-28T17:00:16.564Z,179.60
2019-02-28T17:02:50.559Z,190.10
2019-02-28T17:05:28.001Z,190.70
2019-02-28T17:08:02.125Z,197.03
2019-02-28T17:10:40.185Z,210.03
2019-02-28T17:13:12.404Z,197.97
2019-02-28T17:15:48.183Z,214.60
2019-02-28T17:18:22.559Z,214.57
2019-02-28T17:20:59.467Z,218.17
2019-02-28T17:23:33.667Z,230.77
2019-02-28T17:26:08.630Z,250.30
2019-02-28T17:28:46.623Z,261.63
2019-02-28T17:31:20.538Z,260.20
2019-02-28T17:33:54.584Z,272.70
2019-02-28T17:36:30.072Z,276.63
2019-02-28T17:39:04.110Z,286.20
2019-02-28T17:41:39.719Z,313.47
2019-02-28T17:44:33.969Z,278.13
2019-02-28T17:47:13.229Z,244.25
2019-02-28T17:50:05.554Z,241.20
2019-02-28T17:53:01.144Z,247.93
2019-02-28T17:55:47.405Z,256.47
2019-02-28T17:58:41.575Z,261.00
2019-02-28T18:01:37.654Z,285.03
2019-02-28T18:04:28.777Z,272.07
2019-02-28T18:07:35.971Z,269.27
2019-02-28T18:10:33.626Z,272.03
2019-02-28T18:13:19.998Z,275.97
2019-02-28T18:16:30.210Z,287.73
2019-02-28T18:19:33.094Z,276.93
2019-02-28T18:22:16.142Z,276.80
2019-02-28T18:25:22.491Z,271.50
2019-02-28T18:28:26.989Z,277.10
2019-02-28T18:31:22.084Z,280.18
2019-02-28T18:33:57.511Z,305.67
2019-02-28T18:36:32.970Z,286.90
2019-02-28T18:39:08.113Z,289.37
2019-02-28T18:41:43.159Z,288.50
2019-02-28T18:44:17.185Z,285.43
2019-02-28T18:46:51.156Z,275.23
2019-02-28T18:49:26.665Z,284.17
2019-02-28T18:52:00.348Z,268.10
2019-02-28T18:54:34.355Z,291.43
2019-02-28T18:57:09.916Z,278.20
2019-02-28T18:59:43.849Z,277.57
2019-02-28T19:02:18.090Z,279.10
2019-02-28T19:04:52.074Z,267.33
2019-02-28T19:07:26.660Z,266.68
2019-02-28T19:10:00.628Z,270.35
2019-02-28T19:12:34.544Z,291.27
2019-02-28T19:15:16.331Z,249.40
2019-02-28T19:17:50.311Z,253.33
2019-02-28T19:20:24.169Z,252.80
2019-02-28T19:22:59.616Z,249.47
2019-02-28T19:25:36.710Z,255.60
2019-02-28T19:28:08.692Z,234.13
2019-02-28T19:30:42.643Z,233.97
2019-02-28T19:33:18.087Z,243.10
2019-02-28T19:35:53.443Z,242.53
2019-02-28T19:38:28.833Z,210.57
2019-02-28T19:41:04.188Z,220.73
2019-02-28T19:43:38.052Z,216.00
2019-02-28T19:46:11.955Z,222.53
2019-02-28T19:48:45.999Z,214.65
2019-02-28T19:51:19.959Z,198.07
2019-02-28T19:53:53.859Z,202.82
2019-02-28T19:56:27.844Z,208.83
2019-02-28T19:59:01.800Z,200.22
2019-02-28T20:01:35.759Z,183.73
2019-02-28T20:04:09.679Z,182.33
2019-02-28T20:06:43.697Z,163.90
2019-02-28T20:09:17.823Z,168.07
2019-02-28T20:11:51.795Z,164.43
2019-02-28T20:14:25.878Z,151.13
2019-02-28T20:16:59.890Z,150.73
2019-02-28T20:19:33.786Z,154.30
2019-02-28T20:22:08.065Z,150.82
2019-02-28T20:24:42.102Z,160.63
2019-02-28T20:27:17.477Z,155.03
2019-02-28T20:29:55.165Z,168.90
2019-02-28T20:32:27.833Z,152.23
2019-02-28T20:35:01.738Z,159.72
2019-02-28T20:37:35.627Z,156.53
2019-02-28T20:40:22.843Z,177.25
2019-02-28T20:42:57.730Z,164.72
2019-02-28T20:45:31.760Z,169.35
2019-02-28T20:48:05.879Z,170.77
2019-02-28T20:50:52.630Z,196.43
2019-02-28T20:53:25.824Z,187.80
2019-02-28T20:56:01.010Z,180.20
2019-02-28T20:58:35.010Z,182.97
2019-02-28T21:04:11.884Z,180.85
2019-02-28T21:06:45.763Z,192.80
2019-02-28T21:09:20.636Z,176.00
2019-02-28T21:11:54.630Z,177.17
2019-02-28T21:14:30.120Z,177.77
2019-02-28T21:17:04.128Z,204.00
2019-02-28T21:19:39.463Z,172.60
2019-02-28T21:22:13.593Z,182.43
2019-02-28T21:24:47.472Z,178.97
2019-02-28T21:27:21.407Z,176.23
2019-02-28T21:29:55.365Z,182.77
2019-02-28T21:32:29.248Z,175.03
2019-02-28T21:35:04.652Z,174.40
2019-02-28T21:37:38.587Z,157.73
2019-02-28T21:40:15.332Z,161.73
2019-02-28T21:42:49.295Z,162.17
2019-02-28T21:45:27.018Z,160.63
2019-02-28T21:48:09.578Z,161.97
2019-02-28T21:50:42.461Z,155.73
2019-02-28T21:53:16.404Z,154.00
2019-02-28T21:55:50.467Z,176.02
2019-02-28T21:58:25.951Z,165.37
2019-02-28T22:01:00.033Z,162.20
2019-02-28T22:03:34.062Z,160.80
2019-02-28T22:06:08.019Z,147.97
2019-02-28T22:08:44.341Z,149.95
2019-02-28T22:11:19.784Z,152.57
2019-02-28T22:13:55.323Z,158.12
2019-02-28T22:16:29.295Z,155.70
2019-02-28T22:19:03.970Z,150.97
2019-02-28T22:21:38.656Z,153.07
2019-02-28T22:24:13.826Z,153.62
2019-02-28T22:26:50.694Z,151.18
2019-02-28T22:29:24.756Z,143.90
2019-02-28T22:31:58.717Z,142.22
2019-02-28T22:34:32.724Z,140.97
2019-02-28T22:37:06.677Z,131.78
2019-02-28T22:39:40.587Z,135.43
2019-02-28T22:42:22.143Z,136.73
2019-02-28T22:44:53.615Z,131.18
2019-02-28T22:47:26.641Z,118.83
2019-02-28T22:50:02.284Z,147.30
2019-02-28T22:52:37.868Z,131.10
2019-02-28T22:55:14.661Z,126.42
2019-02-28T22:57:49.866Z,128.00
2019-02-28T23:00:45.327Z,123.30
2019-02-28T23:03:19.419Z,111.03
2019-02-28T23:05:53.553Z,117.97
2019-02-28T23:08:27.602Z,123.53
2019-02-28T23:14:34.735Z,124.60
2019-02-28T23:17:07.120Z,126.10
2019-02-28T23:19:41.062Z,123.57
2019-02-28T23:22:16.846Z,137.57
2019-02-28T23:24:50.474Z,129.03
2019-02-28T23:27:24.406Z,138.10
2019-02-28T23:30:08.071Z,123.37
2019-02-28T23:32:54.563Z,128.63
2019-02-28T23:35:31.414Z,148.33
2019-02-28T23:38:06.776Z,137.60
2019-02-28T23:40:44.741Z,127.13
2019-02-28T23:43:18.760Z,134.40
2019-02-28T23:45:52.759Z,140.67
2019-02-28T23:48:28.329Z,132.80
2019-02-28T23:51:11.385Z,131.30
2019-02-28T23:53:46.556Z,148.72
2019-02-28T23:56:20.485Z,136.70
2019-02-28T23:58:55.905Z,145.37
